Time;durP1;ratioP1;P1;durP2;ratioP2;P2;SDS_P1;SDS_P2;PMS_P1;PMS_P2;Temp;Humidity;BMP_temperature;BMP_pressure;BME280_temperature;BME280_humidity;BME280_pressure;Samples;Min_cycle;Max_cycle;Signal;HPM_P1;HPM_P2
2022/08/06 00:00:45;;;;;;;2.60;2.40;;;26.60;51.90;;;;;;5021395;28;20656;-50
2022/08/06 00:03:11;;;;;;;2.80;2.60;;;26.60;52.30;;;;;;5017167;28;20208;-51
2022/08/06 00:05:36;;;;;;;3.20;2.40;;;26.60;52.60;;;;;;5035435;28;20953;-49
2022/08/06 00:08:02;;;;;;;2.67;2.53;;;26.60;52.00;;;;;;5017231;28;20282;-46
2022/08/06 00:10:28;;;;;;;3.70;2.50;;;26.60;51.90;;;;;;5016493;28;20236;-49
2022/08/06 00:12:54;;;;;;;2.93;2.73;;;26.60;52.10;;;;;;5017020;28;20200;-49
2022/08/06 00:15:19;;;;;;;3.73;2.47;;;26.60;51.90;;;;;;5015731;28;20281;-49
2022/08/06 00:17:46;;;;;;;3.93;2.60;;;26.60;52.30;;;;;;5016424;28;20553;-49
2022/08/06 00:20:15;;;;;;;2.60;2.40;;;26.50;52.60;;;;;;5013399;28;20628;-49
2022/08/06 00:22:41;;;;;;;2.47;2.30;;;26.50;52.90;;;;;;5021006;28;20448;-49
2022/08/06 00:25:09;;;;;;;4.47;2.93;;;26.50;53.30;;;;;;5032860;28;21057;-48
2022/08/06 00:27:35;;;;;;;4.30;2.90;;;26.50;53.40;;;;;;5032981;28;20439;-49
2022/08/06 00:30:01;;;;;;;3.10;2.80;;;26.50;53.60;;;;;;5031220;28;20490;-48
2022/08/06 00:32:27;;;;;;;2.60;2.40;;;26.40;53.40;;;;;;5033443;28;20443;-45
2022/08/06 00:34:52;;;;;;;3.53;2.67;;;26.50;53.20;;;;;;5032805;28;20252;-47
2022/08/06 00:37:18;;;;;;;4.80;2.70;;;26.40;52.90;;;;;;5032808;28;20272;-46
2022/08/06 00:39:44;;;;;;;2.83;2.60;;;26.40;51.70;;;;;;5032824;28;20201;-49
2022/08/06 00:42:09;;;;;;;4.47;3.10;;;26.30;51.10;;;;;;5033158;28;20194;-46
2022/08/06 00:44:35;;;;;;;3.63;2.40;;;26.30;51.20;;;;;;5032618;28;21163;-47
2022/08/06 00:47:00;;;;;;;7.90;2.97;;;26.30;51.10;;;;;;5032757;28;20277;-46
2022/08/06 00:49:26;;;;;;;2.87;2.20;;;26.30;50.90;;;;;;5032471;28;20219;-50
2022/08/06 00:51:52;;;;;;;2.30;2.20;;;26.30;50.40;;;;;;5033155;28;20220;-48
2022/08/06 00:54:19;;;;;;;2.43;2.20;;;26.30;49.90;;;;;;5031429;28;20460;-45
2022/08/06 00:56:45;;;;;;;3.90;2.90;;;26.20;49.40;;;;;;5011435;28;20200;-46
2022/08/06 00:59:10;;;;;;;2.77;2.50;;;26.20;49.40;;;;;;5012642;28;20433;-46
2022/08/06 01:01:36;;;;;;;3.03;1.80;;;26.10;48.90;;;;;;5017556;28;20253;-45
2022/08/06 01:04:02;;;;;;;1.97;1.87;;;26.10;48.90;;;;;;5021302;28;20664;-49
2022/08/06 01:06:28;;;;;;;2.70;2.10;;;26.10;49.40;;;;;;5025024;28;20561;-45
2022/08/06 01:08:53;;;;;;;2.80;1.70;;;26.10;49.10;;;;;;5012303;28;20218;-49
2022/08/06 01:11:19;;;;;;;3.53;1.90;;;26.10;49.10;;;;;;5012742;28;20566;-45
2022/08/06 01:13:44;;;;;;;2.43;2.33;;;26.10;48.80;;;;;;5012500;28;20198;-45
2022/08/06 01:16:16;;;;;;;2.80;1.83;;;26.10;48.40;;;;;;5012693;28;20232;-45
2022/08/06 01:18:50;;;;;;;5.20;1.63;;;26.10;48.10;;;;;;5012218;28;20197;-44
2022/08/06 01:21:34;;;;;;;2.03;1.90;;;25.80;47.50;;;;;;5012856;28;20429;-46
2022/08/06 01:24:35;;;;;;;2.30;1.90;;;25.80;47.30;;;;;;5010527;28;20769;-45
2022/08/06 01:27:23;;;;;;;4.30;2.10;;;25.80;47.30;;;;;;5012184;28;20788;-45
2022/08/06 01:29:55;;;;;;;1.63;1.53;;;25.80;47.20;;;;;;5011449;28;20814;-45
2022/08/06 01:32:33;;;;;;;2.13;1.77;;;25.70;47.30;;;;;;5012381;28;20432;-45
2022/08/06 01:35:05;;;;;;;2.80;1.80;;;25.70;47.60;;;;;;5011861;28;20464;-45
2022/08/06 01:37:42;;;;;;;1.80;1.70;;;25.80;47.20;;;;;;5011850;28;20433;-45
2022/08/06 01:40:14;;;;;;;2.20;2.00;;;25.70;46.90;;;;;;5011853;28;20424;-45
2022/08/06 01:42:43;;;;;;;2.10;1.90;;;25.80;46.90;;;;;;5012388;28;20425;-46
2022/08/06 01:45:13;;;;;;;2.03;1.83;;;25.80;46.80;;;;;;5011171;28;21195;-45
2022/08/06 01:47:41;;;;;;;5.67;1.80;;;25.80;46.70;;;;;;5012358;28;20444;-44
2022/08/06 01:50:08;;;;;;;1.83;1.73;;;25.80;46.40;;;;;;5010062;28;20542;-45
2022/08/06 01:52:37;;;;;;;2.17;2.07;;;25.90;46.70;;;;;;5012221;28;20547;-45
2022/08/06 01:55:07;;;;;;;1.73;1.60;;;25.80;46.50;;;;;;5011541;28;20425;-45
2022/08/06 01:57:35;;;;;;;2.50;2.00;;;25.80;46.70;;;;;;5012071;28;20445;-46
2022/08/06 02:00:03;;;;;;;2.60;1.50;;;25.80;46.50;;;;;;5011558;28;20559;-44
2022/08/06 02:02:30;;;;;;;3.40;1.97;;;25.80;46.70;;;;;;5016215;28;20447;-45
2022/08/06 02:04:59;;;;;;;2.17;1.80;;;25.70;46.60;;;;;;5027313;28;20919;-46
2022/08/06 02:07:30;;;;;;;2.23;1.70;;;25.80;46.60;;;;;;5016025;28;20504;-45
2022/08/06 02:09:58;;;;;;;2.80;1.93;;;25.70;46.40;;;;;;5011266;28;20495;-46
2022/08/06 02:12:26;;;;;;;3.10;2.00;;;25.70;46.40;;;;;;5011825;28;20433;-45
2022/08/06 02:15:14;;;;;;;3.07;1.87;;;25.70;46.50;;;;;;5010974;28;20441;-45
2022/08/06 02:17:47;;;;;;;1.60;1.50;;;25.70;46.60;;;;;;5010139;28;20429;-45
2022/08/06 02:20:17;;;;;;;3.70;1.93;;;25.60;46.30;;;;;;5011382;28;20433;-45
2022/08/06 02:22:45;;;;;;;3.40;2.10;;;25.60;46.20;;;;;;5011949;28;20428;-44
2022/08/06 02:25:13;;;;;;;2.17;1.97;;;25.60;46.10;;;;;;5010816;28;20417;-45
2022/08/06 02:27:43;;;;;;;2.60;1.70;;;25.50;46.30;;;;;;5011767;28;20427;-46
2022/08/06 02:30:10;;;;;;;2.40;1.93;;;25.50;46.50;;;;;;5010849;28;20638;-45
2022/08/06 02:32:36;;;;;;;2.03;1.70;;;25.50;46.40;;;;;;5011213;28;20479;-45
2022/08/06 02:35:02;;;;;;;2.90;1.90;;;25.50;46.60;;;;;;5010549;28;20520;-45
2022/08/06 02:37:39;;;;;;;4.60;1.67;;;25.40;46.30;;;;;;5011451;28;20193;-45
2022/08/06 02:40:11;;;;;;;2.07;1.80;;;25.40;46.70;;;;;;5010813;28;20567;-46
2022/08/06 02:42:48;;;;;;;3.53;1.70;;;25.40;47.10;;;;;;5009545;28;20440;-46
2022/08/06 02:45:22;;;;;;;2.30;1.70;;;25.40;47.10;;;;;;5010553;28;20603;-47
2022/08/06 02:48:12;;;;;;;1.97;1.80;;;25.40;47.10;;;;;;5011202;28;20475;-46
2022/08/06 02:50:43;;;;;;;2.60;2.07;;;25.50;46.80;;;;;;5010946;28;20495;-47
2022/08/06 02:53:11;;;;;;;2.37;1.90;;;25.40;46.70;;;;;;5015337;28;20463;-46
2022/08/06 02:55:42;;;;;;;2.50;1.80;;;25.40;46.90;;;;;;5019009;28;20486;-45
2022/08/06 02:58:22;;;;;;;7.80;2.20;;;25.40;46.90;;;;;;5011153;28;20997;-45
2022/08/06 03:00:51;;;;;;;3.13;2.00;;;25.40;46.80;;;;;;5015464;28;20934;-45
2022/08/06 03:03:20;;;;;;;3.10;1.90;;;25.40;47.00;;;;;;5012927;28;20451;-47
2022/08/06 03:05:46;;;;;;;2.07;1.83;;;25.40;47.20;;;;;;5028698;28;20432;-45
2022/08/06 03:08:18;;;;;;;1.83;1.73;;;25.30;47.00;;;;;;5011165;28;20421;-46
2022/08/06 03:10:45;;;;;;;1.93;1.83;;;25.30;46.90;;;;;;5009361;28;20225;-45
2022/08/06 03:13:11;;;;;;;2.80;1.83;;;25.30;47.00;;;;;;5010927;28;20433;-45
2022/08/06 03:15:38;;;;;;;2.23;1.90;;;25.30;46.80;;;;;;5010410;28;20425;-47
2022/08/06 03:18:05;;;;;;;2.10;1.90;;;25.30;46.80;;;;;;5011280;28;20851;-46
2022/08/06 03:20:33;;;;;;;2.80;2.17;;;25.30;47.10;;;;;;5010287;28;20843;-49
2022/08/06 03:23:03;;;;;;;1.97;1.73;;;25.30;47.40;;;;;;5010717;28;20448;-45
2022/08/06 03:25:29;;;;;;;2.00;1.80;;;25.30;47.30;;;;;;5010217;28;20464;-46
2022/08/06 03:27:56;;;;;;;2.53;1.67;;;25.20;46.90;;;;;;5011130;28;20429;-44
2022/08/06 03:30:23;;;;;;;1.70;1.60;;;25.20;47.10;;;;;;5010329;28;20519;-45
2022/08/06 03:32:50;;;;;;;2.70;1.70;;;25.20;47.20;;;;;;5010733;28;21305;-45
2022/08/06 03:35:16;;;;;;;2.63;1.90;;;25.20;47.20;;;;;;5009826;28;20559;-46
2022/08/06 03:37:42;;;;;;;3.03;1.83;;;25.20;47.30;;;;;;5009512;28;20423;-45
2022/08/06 03:40:10;;;;;;;2.73;1.90;;;25.20;47.20;;;;;;5009976;28;20429;-46
2022/08/06 03:42:36;;;;;;;2.10;1.90;;;25.10;47.10;;;;;;5009609;28;20441;-45
2022/08/06 03:45:03;;;;;;;3.77;1.70;;;25.10;47.20;;;;;;5009906;28;20433;-45
2022/08/06 03:47:37;;;;;;;3.80;1.90;;;25.00;47.40;;;;;;5010795;28;20478;-45
2022/08/06 03:50:20;;;;;;;3.17;1.90;;;25.00;47.50;;;;;;5009974;28;20502;-45
2022/08/06 03:52:49;;;;;;;5.70;2.10;;;25.00;47.60;;;;;;5012404;28;20572;-45
2022/08/06 03:55:19;;;;;;;3.60;2.03;;;25.00;47.80;;;;;;5024776;28;20460;-46
2022/08/06 03:57:48;;;;;;;2.73;1.90;;;25.00;47.70;;;;;;5014317;28;20421;-45
2022/08/06 04:00:16;;;;;;;2.30;2.10;;;25.00;47.60;;;;;;5014246;28;20428;-45
2022/08/06 04:02:49;;;;;;;2.03;1.70;;;25.00;47.60;;;;;;5017565;28;20524;-45
2022/08/06 04:05:21;;;;;;;1.90;1.80;;;25.00;47.50;;;;;;5030364;28;20474;-44
2022/08/06 04:07:49;;;;;;;5.43;2.60;;;25.00;47.20;;;;;;5015621;28;20428;-45
2022/08/06 04:10:17;;;;;;;1.97;1.87;;;25.00;47.20;;;;;;5013852;28;20476;-47
2022/08/06 04:12:44;;;;;;;2.60;1.87;;;25.00;47.40;;;;;;5014182;28;20547;-46
2022/08/06 04:15:12;;;;;;;3.00;1.87;;;25.00;47.60;;;;;;5013109;28;20425;-48
2022/08/06 04:17:39;;;;;;;2.13;1.87;;;25.00;47.70;;;;;;5014103;28;20436;-49
2022/08/06 04:20:06;;;;;;;2.77;1.97;;;25.00;47.60;;;;;;5013345;28;20440;-45
2022/08/06 04:22:33;;;;;;;2.63;2.20;;;25.00;48.20;;;;;;5013991;28;20432;-48
2022/08/06 04:24:58;;;;;;;2.00;1.90;;;25.00;47.50;;;;;;5012856;28;20429;-49
2022/08/06 04:27:27;;;;;;;2.10;1.90;;;25.00;47.50;;;;;;5020324;28;20438;-49
2022/08/06 04:29:54;;;;;;;2.33;2.10;;;25.00;47.40;;;;;;5032993;28;20290;-48
2022/08/06 04:32:20;;;;;;;3.23;1.90;;;25.00;47.60;;;;;;5031745;28;20424;-48
2022/08/06 04:34:47;;;;;;;2.13;1.60;;;25.00;47.70;;;;;;5033174;28;20432;-46
2022/08/06 04:37:12;;;;;;;6.50;2.40;;;25.00;47.60;;;;;;5033235;28;20825;-45
2022/08/06 04:39:38;;;;;;;2.10;2.00;;;24.80;47.80;;;;;;5032878;28;20513;-48
2022/08/06 04:42:05;;;;;;;1.70;1.60;;;24.80;47.80;;;;;;5033085;28;20201;-46
2022/08/06 04:44:31;;;;;;;2.30;1.83;;;24.70;47.90;;;;;;5032577;28;20491;-46
2022/08/06 04:46:57;;;;;;;2.57;2.37;;;24.60;48.00;;;;;;5032940;28;20935;-49
2022/08/06 04:49:23;;;;;;;1.57;1.47;;;24.60;48.20;;;;;;5032685;28;20189;-45
2022/08/06 04:51:49;;;;;;;2.03;1.70;;;24.70;48.40;;;;;;5032609;28;20435;-45
2022/08/06 04:54:15;;;;;;;2.70;2.10;;;24.70;48.20;;;;;;5032096;28;20196;-48
2022/08/06 04:56:43;;;;;;;2.80;1.90;;;24.70;48.30;;;;;;5011838;28;20197;-46
2022/08/06 04:59:09;;;;;;;2.33;2.13;;;24.80;48.10;;;;;;5011064;28;20437;-49
2022/08/06 05:01:36;;;;;;;2.60;2.00;;;24.70;48.20;;;;;;5017593;28;20433;-45
2022/08/06 05:04:03;;;;;;;2.47;2.27;;;24.60;48.30;;;;;;5020676;28;20511;-48
2022/08/06 05:06:44;;;;;;;4.60;2.20;;;24.70;48.40;;;;;;5024558;28;20433;-46
2022/08/06 05:09:14;;;;;;;1.80;1.70;;;24.70;48.50;;;;;;5012541;28;20528;-48
2022/08/06 05:11:46;;;;;;;2.10;1.90;;;24.60;48.30;;;;;;5013132;28;20507;-45
2022/08/06 05:14:28;;;;;;;2.80;1.70;;;24.70;48.20;;;;;;5012350;28;20421;-49
2022/08/06 05:16:55;;;;;;;2.03;1.83;;;24.60;48.30;;;;;;5012634;28;20571;-48
2022/08/06 05:19:30;;;;;;;3.57;2.70;;;24.50;48.60;;;;;;5012247;28;20482;-44
2022/08/06 05:21:58;;;;;;;2.20;2.07;;;24.60;48.30;;;;;;5012930;28;20421;-48
2022/08/06 05:24:24;;;;;;;1.70;1.60;;;24.50;48.60;;;;;;5010229;28;20440;-49
2022/08/06 05:26:50;;;;;;;2.20;2.00;;;24.40;48.60;;;;;;5012181;28;20417;-50
2022/08/06 05:29:21;;;;;;;4.27;2.23;;;24.30;49.00;;;;;;5012302;28;20425;-46
2022/08/06 05:31:47;;;;;;;2.13;1.87;;;24.40;48.90;;;;;;5012552;28;20198;-47
2022/08/06 05:34:13;;;;;;;6.73;2.40;;;24.50;48.90;;;;;;5010806;28;20815;-48
2022/08/06 05:36:40;;;;;;;2.50;2.23;;;24.50;48.90;;;;;;5011993;28;20904;-46
2022/08/06 05:39:06;;;;;;;2.67;2.17;;;24.50;48.90;;;;;;5012209;28;20437;-49
2022/08/06 05:41:34;;;;;;;1.77;1.67;;;24.40;49.00;;;;;;5012497;28;20564;-48
2022/08/06 05:44:01;;;;;;;7.13;2.40;;;24.50;49.10;;;;;;5011639;28;20878;-48
2022/08/06 05:46:32;;;;;;;2.47;1.80;;;24.60;49.00;;;;;;5012025;28;20432;-49
2022/08/06 05:49:18;;;;;;;2.20;2.00;;;24.70;48.80;;;;;;5011796;28;20447;-48
2022/08/06 05:51:53;;;;;;;2.90;1.93;;;24.50;48.30;;;;;;5009487;28;20542;-49
2022/08/06 05:54:35;;;;;;;4.30;2.03;;;24.20;48.60;;;;;;5030414;28;20479;-48
2022/08/06 05:57:09;;;;;;;2.57;2.00;;;24.20;49.10;;;;;;5011583;28;20428;-48
2022/08/06 05:59:39;;;;;;;2.57;2.37;;;24.30;48.80;;;;;;5024892;28;20432;-45
2022/08/06 06:02:06;;;;;;;1.80;1.70;;;24.40;48.90;;;;;;5016593;28;20447;-46
2022/08/06 06:04:32;;;;;;;2.20;2.00;;;24.60;48.70;;;;;;5023923;28;20423;-50
2022/08/06 06:06:58;;;;;;;3.77;1.93;;;24.40;48.70;;;;;;5019859;28;20932;-49
2022/08/06 06:09:25;;;;;;;2.37;1.97;;;24.30;48.40;;;;;;5011295;28;20434;-47
2022/08/06 06:11:51;;;;;;;4.33;2.10;;;24.20;48.60;;;;;;5012180;28;20417;-49
2022/08/06 06:14:20;;;;;;;1.93;1.60;;;24.10;48.90;;;;;;5011402;28;20495;-49
2022/08/06 06:17:26;;;;;;;2.10;1.90;;;24.20;48.90;;;;;;5011163;28;20248;-46
2022/08/06 06:20:10;;;;;;;2.80;2.00;;;24.50;49.20;;;;;;5020573;28;20443;-45
2022/08/06 06:22:49;;;;;;;3.83;1.90;;;24.70;49.30;;;;;;5031347;28;20931;-50
2022/08/06 06:25:25;;;;;;;1.80;1.70;;;24.80;48.50;;;;;;5030621;28;20510;-49
2022/08/06 06:27:57;;;;;;;2.10;1.90;;;24.70;48.60;;;;;;5030961;28;20432;-45
2022/08/06 06:30:54;;;;;;;2.77;2.50;;;24.50;48.50;;;;;;5026400;28;20496;-45
2022/08/06 06:33:27;;;;;;;2.93;2.00;;;24.60;48.90;;;;;;5010507;28;20465;-47
2022/08/06 06:35:59;;;;;;;3.30;2.17;;;24.60;48.50;;;;;;5011172;28;20433;-49
2022/08/06 06:39:04;;;;;;;4.17;2.30;;;24.70;48.30;;;;;;5010777;28;20428;-44
2022/08/06 06:41:49;;;;;;;3.70;2.60;;;24.80;48.50;;;;;;5011308;28;20444;-48
2022/08/06 06:45:01;;;;;;;3.00;2.80;;;24.90;47.90;;;;;;5011160;28;20424;-46
2022/08/06 06:47:40;;;;;;;2.50;2.03;;;24.70;47.90;;;;;;5018081;28;20946;-46
2022/08/06 06:50:13;;;;;;;2.67;2.20;;;24.70;49.80;;;;;;5030432;28;20594;-46
2022/08/06 06:52:42;;;;;;;2.80;2.60;;;24.90;48.90;;;;;;5030396;28;20464;-48
2022/08/06 06:55:24;;;;;;;4.70;2.57;;;25.00;48.00;;;;;;5022541;28;20932;-45
2022/08/06 06:57:58;;;;;;;2.60;2.00;;;25.00;47.80;;;;;;5011337;28;20808;-45
2022/08/06 07:00:25;;;;;;;2.80;2.33;;;25.00;47.90;;;;;;5012821;28;20479;-45
2022/08/06 07:02:52;;;;;;;2.40;2.20;;;25.10;48.00;;;;;;5012920;28;20429;-44
2022/08/06 07:05:20;;;;;;;2.13;2.00;;;25.20;47.70;;;;;;5029009;28;20428;-45
2022/08/06 07:07:48;;;;;;;2.20;2.07;;;25.20;47.70;;;;;;5012857;28;20495;-45
2022/08/06 07:10:15;;;;;;;3.40;2.63;;;25.40;47.50;;;;;;5010366;28;20516;-45
2022/08/06 07:12:43;;;;;;;5.33;2.43;;;25.50;46.60;;;;;;5009531;28;20425;-45
2022/08/06 07:15:11;;;;;;;2.87;2.20;;;25.50;46.90;;;;;;5010196;28;20435;-46
2022/08/06 07:17:38;;;;;;;2.70;2.50;;;25.60;47.40;;;;;;5010723;28;20425;-45
2022/08/06 07:20:07;;;;;;;2.20;2.10;;;25.80;47.40;;;;;;5010524;28;20423;-45
2022/08/06 07:22:35;;;;;;;2.00;1.90;;;25.90;46.70;;;;;;5010722;28;20519;-45
2022/08/06 07:25:05;;;;;;;3.27;2.17;;;26.00;46.10;;;;;;5009861;28;20453;-45
2022/08/06 07:27:38;;;;;;;2.20;2.00;;;26.30;46.00;;;;;;5017700;28;20490;-47
2022/08/06 07:30:05;;;;;;;2.63;2.43;;;26.30;45.60;;;;;;5034144;28;20479;-45
2022/08/06 07:32:34;;;;;;;2.53;2.10;;;26.20;45.20;;;;;;5034593;28;20945;-44
2022/08/06 07:35:09;;;;;;;2.60;2.40;;;26.30;45.30;;;;;;5033495;28;20899;-45
2022/08/06 07:37:37;;;;;;;2.63;2.43;;;26.30;45.00;;;;;;5034505;28;20427;-45
2022/08/06 07:40:06;;;;;;;3.40;2.30;;;26.50;44.70;;;;;;5031110;28;21099;-44
2022/08/06 07:42:34;;;;;;;2.50;2.30;;;26.70;44.30;;;;;;5034438;28;20435;-45
2022/08/06 07:45:03;;;;;;;2.67;2.40;;;26.70;44.50;;;;;;5033183;28;20424;-45
2022/08/06 07:47:34;;;;;;;2.73;2.33;;;26.80;44.40;;;;;;5034317;28;20924;-44
2022/08/06 07:49:59;;;;;;;3.33;2.40;;;26.70;44.30;;;;;;5033518;28;20528;-45
2022/08/06 07:52:26;;;;;;;2.50;2.13;;;26.80;44.40;;;;;;5034129;28;20471;-45
2022/08/06 07:54:56;;;;;;;2.53;2.07;;;26.90;44.00;;;;;;5028032;28;20189;-45
2022/08/06 07:57:23;;;;;;;2.47;2.37;;;26.90;44.70;;;;;;5014329;28;20421;-44
2022/08/06 07:59:50;;;;;;;2.83;2.50;;;26.90;44.10;;;;;;5013891;28;20943;-45
2022/08/06 08:02:16;;;;;;;4.03;2.60;;;27.00;44.00;;;;;;5018760;28;20432;-45
2022/08/06 08:07:28;;;;;;;2.70;2.30;;;26.30;44.90;;;;;;5016942;28;20428;-45
2022/08/06 08:09:56;;;;;;;2.50;2.33;;;26.50;44.50;;;;;;5013649;28;20907;-45
2022/08/06 08:12:22;;;;;;;2.33;2.13;;;26.70;44.30;;;;;;5013997;28;20429;-45
2022/08/06 08:14:50;;;;;;;2.47;2.27;;;26.70;44.00;;;;;;5013180;28;20428;-46
2022/08/06 08:17:15;;;;;;;2.87;2.37;;;26.90;43.90;;;;;;5013795;28;20433;-46
2022/08/06 08:19:41;;;;;;;3.07;2.30;;;26.90;45.10;;;;;;5013849;28;21244;-46
2022/08/06 08:22:17;;;;;;;2.30;2.10;;;27.10;44.50;;;;;;5013914;28;20190;-45
2022/08/06 08:24:45;;;;;;;3.43;2.60;;;27.40;43.80;;;;;;5013161;28;20189;-45
2022/08/06 08:27:11;;;;;;;2.53;2.33;;;27.60;43.30;;;;;;5013771;28;20425;-48
2022/08/06 08:29:38;;;;;;;3.00;2.80;;;27.70;42.60;;;;;;5012959;28;20778;-49
2022/08/06 08:32:05;;;;;;;2.90;2.63;;;27.70;42.40;;;;;;5017048;28;20432;-47
2022/08/06 08:34:33;;;;;;;5.60;2.33;;;27.40;42.70;;;;;;5021120;28;20630;-48
2022/08/06 08:36:59;;;;;;;2.93;2.53;;;27.30;42.70;;;;;;5013624;28;20456;-47
2022/08/06 08:39:27;;;;;;;4.77;2.97;;;27.30;42.00;;;;;;5011820;28;20425;-46
2022/08/06 08:42:01;;;;;;;2.17;2.07;;;27.50;42.50;;;;;;5013531;28;20528;-49
2022/08/06 08:44:27;;;;;;;3.60;2.93;;;27.50;42.00;;;;;;5012798;28;20435;-46
2022/08/06 08:46:58;;;;;;;2.20;2.00;;;27.50;41.20;;;;;;5013390;28;20445;-46
2022/08/06 08:49:45;;;;;;;3.90;2.37;;;27.50;41.80;;;;;;5012605;28;20440;-49
2022/08/06 08:52:19;;;;;;;1.90;1.80;;;27.80;41.50;;;;;;5013345;28;20495;-50
2022/08/06 08:54:48;;;;;;;2.13;1.93;;;28.00;42.30;;;;;;5025706;28;20444;-49
2022/08/06 08:57:15;;;;;;;2.77;1.80;;;28.20;40.60;;;;;;5013474;28;20524;-48
2022/08/06 08:59:42;;;;;;;2.40;2.20;;;28.40;40.60;;;;;;5011163;28;20433;-48
2022/08/06 09:02:11;;;;;;;2.13;2.03;;;28.50;39.20;;;;;;5017269;28;20429;-49
2022/08/06 09:04:38;;;;;;;3.30;2.10;;;28.60;40.60;;;;;;5025559;28;20518;-47
2022/08/06 09:07:05;;;;;;;1.90;1.80;;;28.70;38.40;;;;;;5021055;28;20441;-46
2022/08/06 09:09:32;;;;;;;2.37;2.17;;;28.90;38.10;;;;;;5012328;28;20568;-49
2022/08/06 09:11:59;;;;;;;2.17;2.03;;;29.10;38.00;;;;;;5012857;28;20846;-48
2022/08/06 09:14:24;;;;;;;2.73;2.53;;;29.10;38.40;;;;;;5011997;28;20433;-49
2022/08/06 09:16:50;;;;;;;2.93;2.30;;;29.30;37.60;;;;;;5012833;28;20794;-45
2022/08/06 09:19:16;;;;;;;2.37;1.93;;;29.00;37.10;;;;;;5012267;28;20190;-45
2022/08/06 09:21:42;;;;;;;2.00;1.90;;;28.90;37.00;;;;;;5012903;28;20201;-47
2022/08/06 09:24:08;;;;;;;4.30;2.00;;;29.30;36.60;;;;;;5012146;28;20197;-46
2022/08/06 09:26:34;;;;;;;3.73;2.20;;;29.30;36.40;;;;;;5010691;28;20437;-45
2022/08/06 09:29:00;;;;;;;4.60;3.20;;;29.40;36.90;;;;;;5012275;28;20428;-49
2022/08/06 09:31:26;;;;;;;2.43;2.23;;;29.70;36.90;;;;;;5012420;28;20575;-50
2022/08/06 09:34:00;;;;;;;2.30;2.10;;;30.10;37.00;;;;;;5011973;28;20431;-46
2022/08/06 09:36:27;;;;;;;2.50;1.90;;;30.50;35.20;;;;;;5012051;28;20277;-50
2022/08/06 09:39:00;;;;;;;2.97;2.20;;;30.80;34.80;;;;;;5011736;28;20467;-50
2022/08/06 09:41:28;;;;;;;2.73;2.10;;;29.90;34.80;;;;;;5012388;28;20432;-48
2022/08/06 09:43:56;;;;;;;2.63;2.20;;;29.40;36.50;;;;;;5011928;28;20437;-49
2022/08/06 09:46:35;;;;;;;2.30;2.20;;;29.60;36.40;;;;;;5011837;28;20428;-46
2022/08/06 09:49:02;;;;;;;2.80;2.60;;;29.70;35.60;;;;;;5011618;28;20500;-48
2022/08/06 09:51:28;;;;;;;3.60;2.47;;;29.80;35.40;;;;;;5011652;28;20488;-45
2022/08/06 09:53:56;;;;;;;2.73;2.00;;;30.00;35.90;;;;;;5020554;28;20518;-45
2022/08/06 09:56:23;;;;;;;1.90;1.70;;;30.10;34.90;;;;;;5013740;28;20443;-45
2022/08/06 09:58:49;;;;;;;1.90;1.80;;;30.30;35.30;;;;;;5011379;28;20835;-45
2022/08/06 10:01:24;;;;;;;5.00;2.03;;;30.50;35.10;;;;;;5016364;28;20484;-45
2022/08/06 10:03:51;;;;;;;1.90;1.80;;;30.60;34.70;;;;;;5018061;28;20427;-46
2022/08/06 10:06:21;;;;;;;2.47;2.27;;;30.60;34.30;;;;;;5025294;28;20471;-45
2022/08/06 10:09:04;;;;;;;4.70;1.70;;;30.60;33.50;;;;;;5011033;28;21223;-46
2022/08/06 10:11:41;;;;;;;2.20;2.10;;;30.50;33.70;;;;;;5011745;28;20487;-47
2022/08/06 10:14:21;;;;;;;2.07;1.90;;;30.60;33.80;;;;;;5011359;28;20487;-46
2022/08/06 10:17:05;;;;;;;2.43;2.20;;;30.60;33.90;;;;;;5011663;28;20421;-46
2022/08/06 10:19:31;;;;;;;2.27;2.07;;;30.60;34.00;;;;;;5018352;28;20919;-49
2022/08/06 10:22:06;;;;;;;2.07;1.97;;;30.60;34.50;;;;;;5030657;28;20454;-45
2022/08/06 10:24:40;;;;;;;2.07;1.97;;;30.70;33.70;;;;;;5030341;28;20284;-49
2022/08/06 10:27:08;;;;;;;2.87;2.03;;;30.70;33.90;;;;;;5031360;28;20486;-46
2022/08/06 10:29:41;;;;;;;3.00;2.30;;;30.50;34.20;;;;;;5030706;28;20808;-46
2022/08/06 10:32:20;;;;;;;2.70;2.10;;;30.50;33.20;;;;;;5031252;28;20449;-45
2022/08/06 10:34:48;;;;;;;3.43;2.47;;;30.60;34.00;;;;;;5030296;28;20428;-46
2022/08/06 10:37:17;;;;;;;2.33;2.13;;;30.50;33.60;;;;;;5031348;28;20436;-48
2022/08/06 10:39:46;;;;;;;3.03;2.83;;;30.50;34.10;;;;;;5030739;28;20417;-47
2022/08/06 10:42:13;;;;;;;4.40;2.00;;;30.50;33.40;;;;;;5031239;28;20416;-45
2022/08/06 10:44:40;;;;;;;2.73;1.80;;;30.50;33.00;;;;;;5030184;28;20436;-46
2022/08/06 10:47:06;;;;;;;2.40;2.20;;;30.50;33.60;;;;;;5029371;28;20431;-50
2022/08/06 10:49:33;;;;;;;5.70;2.40;;;30.70;34.10;;;;;;5030313;28;20516;-47
2022/08/06 10:51:59;;;;;;;3.63;2.63;;;30.50;33.10;;;;;;5030963;28;20428;-47
2022/08/06 10:54:26;;;;;;;3.30;1.90;;;30.40;33.40;;;;;;5028429;28;20780;-48
2022/08/06 10:56:56;;;;;;;1.70;1.60;;;30.40;34.30;;;;;;5011189;28;20428;-50
2022/08/06 10:59:22;;;;;;;2.47;1.90;;;30.30;33.90;;;;;;5010574;28;20433;-49
2022/08/06 11:02:23;;;;;;;2.30;2.10;;;30.00;33.90;;;;;;5015308;28;20486;-45
2022/08/06 11:05:03;;;;;;;1.90;1.73;;;30.00;33.70;;;;;;5024942;28;20205;-48
2022/08/06 11:08:03;;;;;;;2.27;2.07;;;30.50;33.80;;;;;;5014927;28;20441;-46
2022/08/06 11:10:57;;;;;;;2.57;1.97;;;30.50;33.20;;;;;;4998348;28;21030;-47
2022/08/06 11:13:44;;;;;;;5.03;2.00;;;30.80;32.90;;;;;;5009243;28;20441;-49
2022/08/06 11:16:25;;;;;;;2.20;2.03;;;31.00;32.10;;;;;;5017433;28;20432;-50
2022/08/06 11:19:17;;;;;;;2.67;2.07;;;31.20;31.30;;;;;;5030030;28;20582;-48
2022/08/06 11:21:47;;;;;;;2.73;2.10;;;31.40;31.60;;;;;;5027819;28;20439;-48
2022/08/06 11:24:15;;;;;;;2.20;2.00;;;31.20;31.20;;;;;;5029733;28;20459;-50
2022/08/06 11:26:43;;;;;;;2.10;1.90;;;31.30;31.80;;;;;;5030496;28;20419;-49
2022/08/06 11:29:13;;;;;;;2.47;2.00;;;31.40;32.90;;;;;;5030285;28;21053;-46
2022/08/06 11:31:47;;;;;;;2.57;2.43;;;31.70;31.50;;;;;;5030684;28;20491;-49
2022/08/06 11:34:14;;;;;;;3.40;2.03;;;32.00;31.50;;;;;;5029855;28;20470;-47
2022/08/06 11:36:47;;;;;;;3.00;2.00;;;32.10;31.50;;;;;;5030227;28;20431;-50
2022/08/06 11:39:14;;;;;;;2.03;1.73;;;31.90;31.70;;;;;;5030077;28;20458;-47
2022/08/06 11:41:49;;;;;;;2.10;1.87;;;32.10;31.50;;;;;;5028787;28;20428;-50
2022/08/06 11:44:19;;;;;;;2.13;1.90;;;32.30;31.30;;;;;;5029805;28;20930;-46
2022/08/06 11:46:47;;;;;;;2.87;2.00;;;32.30;31.30;;;;;;5030596;28;20533;-49
2022/08/06 11:49:33;;;;;;;4.07;2.13;;;32.10;31.50;;;;;;5029706;28;20435;-49
2022/08/06 11:52:00;;;;;;;2.20;1.90;;;32.00;31.80;;;;;;5030246;28;21164;-49
2022/08/06 11:54:36;;;;;;;4.80;2.40;;;32.00;30.80;;;;;;5027755;28;20884;-51
2022/08/06 11:57:01;;;;;;;3.60;2.13;;;31.90;30.80;;;;;;5010637;28;20433;-49
2022/08/06 11:59:35;;;;;;;1.80;1.70;;;31.90;29.90;;;;;;5010006;28;20444;-45
2022/08/06 12:02:13;;;;;;;1.90;1.80;;;31.90;29.90;;;;;;5014747;28;20197;-46
2022/08/06 12:04:42;;;;;;;2.23;2.03;;;32.00;30.40;;;;;;5022503;28;21054;-46
2022/08/06 12:07:21;;;;;;;2.10;2.00;;;32.30;30.50;;;;;;5015916;28;20436;-50
2022/08/06 12:09:58;;;;;;;2.33;1.77;;;32.60;29.70;;;;;;5017715;28;20447;-50
2022/08/06 12:12:24;;;;;;;2.00;1.90;;;32.80;29.30;;;;;;5030044;28;20440;-46
2022/08/06 12:14:50;;;;;;;2.20;2.10;;;32.90;29.20;;;;;;5031416;28;20474;-49
2022/08/06 12:17:20;;;;;;;2.00;1.77;;;33.20;29.60;;;;;;5033735;28;20201;-46
2022/08/06 12:19:47;;;;;;;2.50;1.70;;;33.30;29.70;;;;;;5033229;28;21447;-48
2022/08/06 12:22:14;;;;;;;3.07;2.03;;;33.00;29.20;;;;;;5033788;28;20419;-47
2022/08/06 12:24:43;;;;;;;1.87;1.67;;;32.80;29.20;;;;;;5032535;28;20443;-50
2022/08/06 12:27:10;;;;;;;4.20;2.20;;;32.60;29.10;;;;;;5033482;28;20424;-46
2022/08/06 12:29:37;;;;;;;3.70;2.20;;;32.80;29.40;;;;;;5032952;28;20439;-49
2022/08/06 12:32:31;;;;;;;2.50;2.07;;;33.00;29.40;;;;;;5033165;28;20449;-49
2022/08/06 12:35:03;;;;;;;2.33;2.10;;;33.00;30.00;;;;;;5030917;28;20472;-46
2022/08/06 12:37:41;;;;;;;2.43;2.10;;;33.10;29.20;;;;;;5033402;28;20434;-47
2022/08/06 12:40:28;;;;;;;1.70;1.60;;;33.30;28.60;;;;;;5032718;28;20428;-48
2022/08/06 12:43:01;;;;;;;3.10;2.07;;;33.50;28.30;;;;;;5033127;28;21000;-49
2022/08/06 12:45:29;;;;;;;2.90;2.10;;;33.70;27.90;;;;;;5032258;28;20920;-46
2022/08/06 12:48:11;;;;;;;3.93;1.80;;;33.40;27.80;;;;;;5033382;28;20433;-46
2022/08/06 12:50:40;;;;;;;2.03;1.83;;;33.40;28.00;;;;;;5032718;28;20498;-46
2022/08/06 12:53:09;;;;;;;1.83;1.70;;;33.70;27.90;;;;;;5032706;28;20903;-51
2022/08/06 12:55:43;;;;;;;3.17;1.73;;;34.00;27.30;;;;;;5021378;28;20512;-46
2022/08/06 12:58:11;;;;;;;2.00;1.90;;;34.00;27.60;;;;;;5013298;28;20515;-46
2022/08/06 13:00:37;;;;;;;2.03;1.87;;;34.30;27.40;;;;;;5016482;28;20800;-50
2022/08/06 13:03:05;;;;;;;2.43;1.80;;;34.60;27.30;;;;;;5012261;28;20417;-48
2022/08/06 13:05:33;;;;;;;2.53;2.20;;;34.60;26.50;;;;;;5031853;28;20455;-46
2022/08/06 13:07:59;;;;;;;2.20;2.00;;;34.70;26.30;;;;;;5026416;28;20441;-48